Rock Springs, Wyoming
Current Conditions -  °F | °C
As of 12:54 AM on Thursday 29 Jan 2015 (Local Time) from KRKS Reporting Station
Scattered Clouds Scattered Clouds  
Wind Chill: 22°   Ceiling: Unl
Heat Index: 30°   Visibility: 10mi
Dew Point: 27°   Wind: 8mph
Humidity: 88%   Direction: 250°WSW
Pressure: 30.36"   Gusts: NA
Location:  41.59°N, 109.22°W
Report Text: KRKS 290754Z AUTO 25007KT 10SM SCT060 M01/M03 A3036 RMK AO2 SLP286 T10111028
Loading
Personal Weather Stations






























Interactive Weather Map New forecast layout! Learn more

10-Day Weather Forecast

Advertisements
Track Severe Weather on mobile